Time;durP1;ratioP1;P1;durP2;ratioP2;P2;SDS_P1;SDS_P2;PMS_P1;PMS_P2;Temp;Humidity;BMP_temperature;BMP_pressure;BME280_temperature;BME280_humidity;BME280_pressure;Samples;Min_cycle;Max_cycle;Signal;HPM_P1;HPM_P2
2023/03/06 00:02:15;;;;;;;18.25;13.23;;;;;;;18.09;48.81;98783.88;5029972;28;20037;-71
2023/03/06 00:04:41;;;;;;;19.45;14.38;;;;;;;18.06;49.03;98786.72;5029814;28;20056;-70
2023/03/06 00:07:06;;;;;;;17.23;13.73;;;;;;;18.07;49.14;98791.06;5061064;28;20484;-71
2023/03/06 00:09:32;;;;;;;17.35;13.50;;;;;;;18.07;48.98;98785.78;5070778;28;20496;-69
2023/03/06 00:11:57;;;;;;;18.27;14.13;;;;;;;18.06;48.90;98792.00;5091933;28;20032;-70
2023/03/06 00:14:23;;;;;;;15.35;12.77;;;;;;;18.03;49.11;98790.38;5092156;28;20012;-70
2023/03/06 00:16:48;;;;;;;17.67;13.32;;;;;;;18.04;49.10;98780.63;5092150;28;20013;-71
2023/03/06 00:19:14;;;;;;;17.10;13.52;;;;;;;18.05;49.23;98779.69;5093301;28;20024;-71
2023/03/06 00:21:40;;;;;;;16.33;12.90;;;;;;;18.02;49.08;98772.81;5096258;28;20024;-71
2023/03/06 00:24:06;;;;;;;16.90;13.52;;;;;;;18.02;49.12;98777.25;5096239;28;20051;-71
2023/03/06 00:26:32;;;;;;;15.95;12.75;;;;;;;18.03;48.95;98779.81;5095669;28;20055;-70
2023/03/06 00:28:58;;;;;;;19.17;13.32;;;;;;;18.01;49.21;98776.38;5095981;28;20361;-71
2023/03/06 00:31:23;;;;;;;16.95;13.13;;;;;;;18.02;49.41;98777.25;5096267;28;20107;-70
2023/03/06 00:33:49;;;;;;;17.95;14.02;;;;;;;18.01;49.30;98776.38;5096065;28;20476;-70
2023/03/06 00:36:14;;;;;;;15.05;13.27;;;;;;;18.03;49.36;98787.72;5096179;28;20396;-70
2023/03/06 00:38:39;;;;;;;19.35;13.80;;;;;;;18.01;49.41;98778.19;5096088;28;20107;-70
2023/03/06 00:41:07;;;;;;;18.42;13.90;;;;;;;18.04;49.25;98785.91;5095560;28;20107;-70
2023/03/06 00:43:32;;;;;;;16.77;12.98;;;;;;;18.01;48.94;98780.84;5095968;28;20445;-71
2023/03/06 00:45:58;;;;;;;18.33;13.32;;;;;;;18.01;49.14;98783.47;5095838;28;20103;-71
2023/03/06 00:48:23;;;;;;;18.95;13.30;;;;;;;18.02;48.89;98786.00;5095633;28;20104;-70
2023/03/06 00:50:48;;;;;;;17.63;13.90;;;;;;;18.00;48.98;98784.41;5095404;28;20072;-71
2023/03/06 00:53:14;;;;;;;20.10;13.27;;;;;;;18.00;49.04;98779.16;5094421;28;20484;-71
2023/03/06 00:55:43;;;;;;;17.73;13.40;;;;;;;17.98;49.26;98777.41;5095336;28;20024;-71
2023/03/06 00:58:08;;;;;;;16.95;12.77;;;;;;;17.99;48.94;98778.28;5095503;28;20028;-71
2023/03/06 01:00:34;;;;;;;17.33;12.98;;;;;;;18.00;49.13;98781.78;5095649;28;20498;-70
2023/03/06 01:02:59;;;;;;;16.65;13.73;;;;;;;18.00;48.84;98784.41;5094028;28;20032;-71
2023/03/06 01:05:25;;;;;;;16.27;12.70;;;;;;;17.98;49.41;98777.41;5095635;28;20026;-71
2023/03/06 01:07:50;;;;;;;17.05;13.68;;;;;;;17.96;49.36;98773.16;5095507;28;20020;-69
2023/03/06 01:10:16;;;;;;;16.05;12.82;;;;;;;17.96;49.05;98779.31;5094990;28;20383;-72
2023/03/06 01:12:41;;;;;;;15.38;12.25;;;;;;;17.97;49.09;98780.16;5095255;28;20032;-70
2023/03/06 01:15:08;;;;;;;14.32;12.32;;;;;;;17.96;49.14;98779.31;5095269;28;20020;-71
2023/03/06 01:17:33;;;;;;;17.00;13.23;;;;;;;17.98;48.95;98771.31;5095143;28;20028;-70
2023/03/06 01:19:58;;;;;;;17.90;13.00;;;;;;;17.98;49.37;98776.59;5095180;28;20028;-71
2023/03/06 01:22:24;;;;;;;15.70;12.77;;;;;;;17.97;49.09;98773.09;5095241;28;20020;-70
2023/03/06 01:24:49;;;;;;;18.95;13.27;;;;;;;17.99;48.78;98775.63;5094649;28;20024;-71
2023/03/06 01:27:15;;;;;;;16.17;13.23;;;;;;;17.97;49.09;98778.38;5095088;28;20028;-71
2023/03/06 01:29:40;;;;;;;16.17;12.93;;;;;;;17.97;49.22;98775.72;5093641;28;20017;-71
2023/03/06 01:32:06;;;;;;;15.30;12.43;;;;;;;17.96;49.08;98776.66;5093795;28;20487;-69
2023/03/06 01:34:31;;;;;;;15.10;12.43;;;;;;;17.95;49.13;98774.97;5094841;28;20097;-71
2023/03/06 01:36:57;;;;;;;15.65;12.10;;;;;;;17.94;48.87;98770.66;5094695;28;20030;-70
2023/03/06 01:39:22;;;;;;;14.45;12.77;;;;;;;17.93;49.39;98768.91;5094182;28;20442;-70
2023/03/06 01:41:47;;;;;;;15.98;12.15;;;;;;;17.95;49.17;98769.69;5094810;28;20110;-70
2023/03/06 01:44:13;;;;;;;15.32;12.45;;;;;;;17.95;48.74;98772.34;5094591;28;20517;-71
2023/03/06 01:46:43;;;;;;;16.35;12.63;;;;;;;17.93;49.08;98766.28;5094854;28;20031;-69
2023/03/06 01:49:17;;;;;;;16.70;12.18;;;;;;;17.95;48.79;98767.06;5094344;28;20032;-71
2023/03/06 01:51:45;;;;;;;15.80;11.98;;;;;;;17.95;49.25;98763.56;5094501;28;20047;-70
2023/03/06 01:54:25;;;;;;;15.25;12.48;;;;;;;17.93;49.07;98755.72;5093874;28;20020;-70
2023/03/06 01:56:54;;;;;;;16.00;13.15;;;;;;;17.95;49.20;98766.19;5094268;28;20105;-71
2023/03/06 01:59:21;;;;;;;14.38;12.13;;;;;;;17.92;49.01;98756.66;5094590;28;20467;-71
2023/03/06 02:01:47;;;;;;;14.82;12.50;;;;;;;17.93;48.96;98753.06;5094297;28;20028;-71
2023/03/06 02:04:12;;;;;;;15.98;12.85;;;;;;;17.91;48.98;98749.69;5093294;28;20024;-71
2023/03/06 02:06:42;;;;;;;13.90;11.25;;;;;;;17.92;49.16;98751.38;5095184;28;20070;-71
2023/03/06 02:09:09;;;;;;;17.85;12.80;;;;;;;17.92;49.17;98756.66;5094584;28;20484;-70
2023/03/06 02:11:34;;;;;;;15.70;12.23;;;;;;;17.91;49.03;98749.69;5093558;28;20388;-69
2023/03/06 02:14:00;;;;;;;16.38;12.23;;;;;;;17.94;48.66;98748.66;5093756;28;20078;-70
2023/03/06 02:16:29;;;;;;;15.95;12.02;;;;;;;17.92;49.12;98751.38;5095179;28;20031;-71
2023/03/06 02:18:55;;;;;;;16.80;13.98;;;;;;;17.91;49.17;98752.34;5094322;28;20020;-70
2023/03/06 02:21:26;;;;;;;18.23;12.75;;;;;;;17.92;49.04;98746.09;5094258;28;20088;-71
2023/03/06 02:24:10;;;;;;;16.88;13.23;;;;;;;17.90;48.58;98753.28;5093632;28;20067;-71
2023/03/06 02:26:37;;;;;;;14.98;12.63;;;;;;;17.93;48.96;98747.81;5092626;28;20145;-70
2023/03/06 02:29:02;;;;;;;13.63;11.30;;;;;;;17.90;48.89;98753.28;5093819;28;20046;-70
2023/03/06 02:31:31;;;;;;;15.23;12.52;;;;;;;17.90;48.89;98758.56;5093806;28;20484;-70
2023/03/06 02:34:14;;;;;;;15.82;12.25;;;;;;;17.88;48.92;98760.44;5093892;28;20024;-71
2023/03/06 02:36:46;;;;;;;18.27;12.30;;;;;;;17.87;48.89;98758.72;5093524;28;20036;-70
2023/03/06 02:39:13;;;;;;;16.27;12.80;;;;;;;17.89;48.79;98756.00;5093700;28;20028;-71
2023/03/06 02:41:39;;;;;;;13.60;10.75;;;;;;;17.88;48.91;98760.44;5093295;28;20028;-69
2023/03/06 02:44:04;;;;;;;15.02;11.65;;;;;;;17.88;48.42;98760.44;5093641;28;20032;-71
2023/03/06 02:46:30;;;;;;;14.52;12.05;;;;;;;17.85;48.65;98761.47;5093526;28;20024;-70
2023/03/06 02:48:55;;;;;;;16.52;12.43;;;;;;;17.88;48.45;98763.09;5093261;28;20031;-72
2023/03/06 02:51:22;;;;;;;13.43;11.05;;;;;;;17.88;48.90;98763.09;5091705;28;20038;-71
2023/03/06 02:53:47;;;;;;;12.90;10.70;;;;;;;17.85;48.67;98763.25;5093413;28;20032;-71
2023/03/06 02:56:12;;;;;;;15.18;11.57;;;;;;;17.86;48.72;98764.94;5093159;28;20035;-70
2023/03/06 02:58:38;;;;;;;13.68;11.05;;;;;;;17.82;48.88;98755.53;5093367;28;20474;-71
2023/03/06 03:01:04;;;;;;;15.93;11.18;;;;;;;17.85;48.82;98757.97;5093212;28;20031;-71
2023/03/06 03:03:29;;;;;;;14.10;11.38;;;;;;;17.86;48.92;98757.03;5093302;28;20024;-70
2023/03/06 03:05:55;;;;;;;13.98;10.98;;;;;;;17.86;48.75;98757.03;5091578;28;20392;-71
2023/03/06 03:08:21;;;;;;;13.75;10.88;;;;;;;17.86;48.63;98757.03;5093039;28;20099;-70
2023/03/06 03:10:46;;;;;;;15.43;11.52;;;;;;;17.85;48.46;98761.47;5092981;28;20060;-71
2023/03/06 03:13:11;;;;;;;14.85;11.18;;;;;;;17.85;48.59;98763.25;5092967;28;20027;-70
2023/03/06 03:15:37;;;;;;;14.32;11.48;;;;;;;17.86;48.47;98757.03;5093054;28;20043;-71
2023/03/06 03:18:02;;;;;;;15.93;11.88;;;;;;;17.83;48.53;98751.94;5093037;28;20103;-70
2023/03/06 03:20:28;;;;;;;13.52;11.45;;;;;;;17.83;48.44;98752.78;5092608;28;20069;-71
2023/03/06 03:22:54;;;;;;;12.50;10.43;;;;;;;17.82;48.59;98756.38;5092828;28;20028;-70
2023/03/06 03:25:22;;;;;;;14.73;11.52;;;;;;;17.84;48.65;98762.38;5092839;28;20024;-71
2023/03/06 03:27:48;;;;;;;15.43;11.70;;;;;;;17.83;48.61;98754.59;5092700;28;20202;-71
2023/03/06 03:30:14;;;;;;;15.73;11.52;;;;;;;17.84;48.39;98748.38;5092566;28;20031;-71
2023/03/06 03:32:39;;;;;;;12.52;10.98;;;;;;;17.82;48.77;98752.91;5092611;28;20057;-69
2023/03/06 03:35:06;;;;;;;13.55;10.27;;;;;;;17.83;48.59;98749.31;5092303;28;20024;-72
2023/03/06 03:37:33;;;;;;;14.43;11.52;;;;;;;17.83;48.39;98749.31;5092536;28;20400;-70
2023/03/06 03:39:59;;;;;;;15.80;11.80;;;;;;;17.82;48.41;98751.09;5092507;28;20032;-71
2023/03/06 03:42:24;;;;;;;14.18;11.48;;;;;;;17.82;48.45;98755.53;5092534;28;20548;-71
2023/03/06 03:44:50;;;;;;;13.90;11.10;;;;;;;17.81;48.37;98748.53;5092327;28;20032;-70
2023/03/06 03:47:15;;;;;;;14.32;11.27;;;;;;;17.82;48.57;98747.63;5092527;28;20049;-70
2023/03/06 03:49:40;;;;;;;15.38;11.15;;;;;;;17.80;48.37;98749.47;5091811;28;20044;-70
2023/03/06 03:52:06;;;;;;;13.45;11.05;;;;;;;17.79;48.28;98750.41;5092426;28;20040;-71
2023/03/06 03:54:31;;;;;;;15.13;11.60;;;;;;;17.80;48.27;98752.13;5091773;28;20024;-71
2023/03/06 03:56:57;;;;;;;14.02;10.77;;;;;;;17.79;48.09;98755.69;5092221;28;20670;-71
2023/03/06 03:59:22;;;;;;;14.13;11.60;;;;;;;17.78;48.29;98743.44;5092450;28;20028;-69
2023/03/06 04:01:48;;;;;;;14.75;11.25;;;;;;;17.80;48.17;98757.41;5092409;28;20545;-72
2023/03/06 04:04:14;;;;;;;12.75;10.75;;;;;;;17.78;48.23;98748.72;5091650;28;20503;-71
2023/03/06 04:06:40;;;;;;;14.20;10.95;;;;;;;17.79;48.17;98750.41;5092403;28;20388;-71
2023/03/06 04:09:05;;;;;;;13.48;10.88;;;;;;;17.80;48.09;98752.97;5092193;28;20024;-70
2023/03/06 04:11:31;;;;;;;14.75;11.10;;;;;;;17.79;48.23;98746.00;5091937;28;20480;-70
2023/03/06 04:13:56;;;;;;;13.15;11.23;;;;;;;17.76;48.30;98755.88;5092045;28;20020;-71
2023/03/06 04:16:21;;;;;;;14.98;11.52;;;;;;;17.76;48.33;98750.59;5090690;28;20020;-70
2023/03/06 04:18:47;;;;;;;13.20;11.73;;;;;;;17.75;48.10;98760.31;5090520;28;20136;-70
2023/03/06 04:21:12;;;;;;;13.48;11.05;;;;;;;17.79;48.03;98763.63;5092065;28;20047;-71
2023/03/06 04:23:38;;;;;;;12.50;10.23;;;;;;;17.75;48.04;98759.44;5092176;28;20020;-70
2023/03/06 04:26:03;;;;;;;13.38;11.15;;;;;;;17.75;48.30;98765.59;5092085;28;20430;-71
2023/03/06 04:28:29;;;;;;;14.25;10.82;;;;;;;17.76;48.18;98766.41;5091693;28;20027;-69
2023/03/06 04:30:54;;;;;;;12.82;10.23;;;;;;;17.76;48.30;98762.00;5091956;28;20073;-71
2023/03/06 04:33:20;;;;;;;15.32;11.32;;;;;;;17.74;48.27;98768.31;5091699;28;20103;-71
2023/03/06 04:35:45;;;;;;;12.95;9.85;;;;;;;17.76;48.17;98766.41;5091838;28;20020;-71
2023/03/06 04:38:10;;;;;;;12.50;10.55;;;;;;;17.75;47.98;98765.59;5091717;28;20020;-70
2023/03/06 04:40:36;;;;;;;14.05;10.60;;;;;;;17.75;48.02;98767.38;5091861;28;20107;-71
2023/03/06 04:43:03;;;;;;;13.15;10.63;;;;;;;17.73;48.07;98766.63;5091244;28;20024;-71
2023/03/06 04:45:30;;;;;;;13.93;11.30;;;;;;;17.74;48.05;98769.16;5091946;28;20028;-71
2023/03/06 04:47:56;;;;;;;13.20;10.45;;;;;;;17.73;48.13;98772.75;5091581;28;20047;-70
2023/03/06 04:50:22;;;;;;;12.88;10.80;;;;;;;17.73;47.75;98767.47;5091615;28;20075;-71
2023/03/06 04:52:48;;;;;;;13.70;11.23;;;;;;;17.72;47.86;98771.03;5091715;28;20035;-71
2023/03/06 04:55:16;;;;;;;14.07;10.20;;;;;;;17.74;47.89;98768.31;5091846;28;20030;-71
2023/03/06 04:57:43;;;;;;;12.75;10.70;;;;;;;17.73;47.89;98775.41;5091714;28;20024;-71
2023/03/06 05:00:14;;;;;;;14.00;10.82;;;;;;;17.69;48.06;98777.34;5091501;28;20578;-71
2023/03/06 05:02:42;;;;;;;11.60;9.65;;;;;;;17.73;48.08;98777.16;5090730;28;20024;-71
2023/03/06 05:05:08;;;;;;;13.27;10.15;;;;;;;17.71;48.17;98780.75;5092403;28;20076;-70
2023/03/06 05:07:34;;;;;;;13.68;10.35;;;;;;;17.72;47.80;98765.75;5095466;28;20028;-70
2023/03/06 05:09:59;;;;;;;13.88;10.57;;;;;;;17.73;47.97;98771.91;5095455;28;20085;-70
2023/03/06 05:12:25;;;;;;;14.18;10.82;;;;;;;17.70;47.93;98773.78;5095288;28;20035;-71
2023/03/06 05:14:50;;;;;;;12.60;9.63;;;;;;;17.68;47.93;98769.53;5095448;28;20020;-70
2023/03/06 05:17:15;;;;;;;12.98;10.45;;;;;;;17.70;47.89;98781.69;5094937;28;20024;-70
2023/03/06 05:19:41;;;;;;;12.02;9.93;;;;;;;17.70;47.80;98783.47;5095223;28;20024;-71
2023/03/06 05:22:06;;;;;;;13.75;10.88;;;;;;;17.69;47.84;98790.53;5095064;28;20032;-70
2023/03/06 05:24:32;;;;;;;15.57;10.95;;;;;;;17.69;47.70;98787.88;5095291;28;20089;-70
2023/03/06 05:26:57;;;;;;;12.88;9.80;;;;;;;17.69;47.72;98785.25;5094880;28;20082;-70
2023/03/06 05:29:22;;;;;;;12.55;9.80;;;;;;;17.68;47.92;98785.38;5095149;28;20012;-70
2023/03/06 05:31:48;;;;;;;13.30;10.57;;;;;;;17.68;47.62;98790.63;5093506;28;20024;-69
2023/03/06 05:34:15;;;;;;;12.90;10.43;;;;;;;17.67;47.90;98787.13;5095041;28;20040;-70
2023/03/06 05:36:41;;;;;;;13.85;10.32;;;;;;;17.67;47.63;98789.78;5095097;28;20044;-71
2023/03/06 05:39:06;;;;;;;13.15;9.90;;;;;;;17.66;47.53;98790.72;5094704;28;20526;-70
2023/03/06 05:41:32;;;;;;;16.13;10.63;;;;;;;17.65;47.63;98783.75;5094584;28;20024;-71
2023/03/06 05:43:57;;;;;;;13.20;10.65;;;;;;;17.65;47.40;98782.88;5094780;28;20038;-70
2023/03/06 05:46:23;;;;;;;13.50;10.73;;;;;;;17.63;47.64;98788.25;5094337;28;20016;-70
2023/03/06 05:48:51;;;;;;;14.27;10.68;;;;;;;17.65;48.15;98785.53;5094794;28;20024;-69
2023/03/06 05:51:16;;;;;;;16.15;9.80;;;;;;;17.67;50.08;98789.78;5094348;28;20040;-69
2023/03/06 05:53:42;;;;;;;12.77;9.00;;;;;;;17.69;50.88;98792.34;5094586;28;20028;-69
2023/03/06 05:56:08;;;;;;;15.18;9.82;;;;;;;17.70;50.78;98794.91;5094488;28;20035;-70
2023/03/06 05:58:34;;;;;;;13.43;9.55;;;;;;;17.71;50.09;98786.03;5094149;28;20164;-66
2023/03/06 06:01:00;;;;;;;12.77;9.95;;;;;;;17.75;49.63;98801.66;5094128;28;20057;-69
2023/03/06 06:03:26;;;;;;;21.88;10.45;;;;;;;17.75;50.00;98797.25;5094508;28;20036;-69
2023/03/06 06:05:52;;;;;;;23.58;11.60;;;;;;;17.75;54.77;98804.31;5094414;28;20024;-70
2023/03/06 06:08:18;;;;;;;20.17;11.27;;;;;;;17.78;53.39;98809.44;5094242;28;20032;-71
2023/03/06 06:10:43;;;;;;;18.83;11.00;;;;;;;17.77;52.79;98805.91;5094306;28;20020;-70
2023/03/06 06:13:09;;;;;;;18.40;11.18;;;;;;;17.77;52.55;98805.09;5092796;28;20505;-71
2023/03/06 06:15:36;;;;;;;16.85;10.75;;;;;;;17.78;52.40;98806.78;5093653;28;20027;-69
2023/03/06 06:18:02;;;;;;;16.17;11.35;;;;;;;17.81;52.28;98818.00;5093651;28;20020;-70
2023/03/06 06:20:27;;;;;;;16.30;11.18;;;;;;;17.83;51.44;98816.13;5092884;28;20369;-72
2023/03/06 06:22:53;;;;;;;19.70;11.70;;;;;;;17.84;50.83;98811.72;5094994;28;20107;-72
2023/03/06 06:25:18;;;;;;;15.15;11.23;;;;;;;17.86;50.87;98820.38;5093952;28;20043;-72
2023/03/06 06:27:44;;;;;;;14.95;9.90;;;;;;;17.88;50.05;98813.25;5095164;28;20081;-72
2023/03/06 06:30:10;;;;;;;17.33;10.90;;;;;;;17.91;49.79;98815.69;5095040;28;20102;-73
2023/03/06 06:32:36;;;;;;;14.52;10.65;;;;;;;17.93;49.97;98826.97;5095512;28;20042;-72
2023/03/06 06:35:02;;;;;;;16.02;10.48;;;;;;;17.92;49.56;98830.56;5094619;28;20442;-72
2023/03/06 06:37:29;;;;;;;21.38;11.40;;;;;;;17.92;49.40;98842.94;5094483;28;20050;-72
2023/03/06 06:39:54;;;;;;;15.18;11.15;;;;;;;17.93;49.47;98842.81;5094034;28;20034;-72
2023/03/06 06:42:20;;;;;;;15.73;10.75;;;;;;;17.95;49.13;98845.38;5093964;28;20024;-72
2023/03/06 06:44:45;;;;;;;17.13;10.40;;;;;;;17.95;48.92;98842.75;5093865;28;20480;-73
2023/03/06 06:47:11;;;;;;;20.17;11.10;;;;;;;17.97;48.81;98854.91;5089620;28;20028;-72
2023/03/06 06:49:36;;;;;;;20.13;10.93;;;;;;;17.96;49.00;98850.59;5092874;28;20066;-72
2023/03/06 06:52:03;;;;;;;14.68;11.38;;;;;;;17.97;49.08;98854.09;5092941;28;20099;-73
2023/03/06 06:54:29;;;;;;;17.35;10.60;;;;;;;17.98;48.64;98861.88;5093416;28;20035;-72
2023/03/06 06:56:54;;;;;;;15.55;10.30;;;;;;;18.02;48.82;98859.09;5093095;28;20028;-72
2023/03/06 06:59:22;;;;;;;14.82;9.70;;;;;;;17.98;48.92;98861.06;5092872;28;20020;-72
2023/03/06 07:01:48;;;;;;;13.57;9.85;;;;;;;17.98;48.42;98861.88;5092873;28;20077;-72
2023/03/06 07:04:14;;;;;;;14.73;10.50;;;;;;;18.00;48.35;98868.91;5092971;28;20020;-72
2023/03/06 07:06:40;;;;;;;17.88;10.32;;;;;;;18.01;48.35;98865.31;5092762;28;20058;-73
2023/03/06 07:09:05;;;;;;;13.80;9.75;;;;;;;18.01;48.27;98870.59;5093058;28;20604;-72
2023/03/06 07:11:31;;;;;;;16.15;9.82;;;;;;;18.01;48.38;98870.59;5090669;28;20108;-71
2023/03/06 07:13:56;;;;;;;14.32;9.73;;;;;;;18.01;48.14;98871.41;5083615;28;20077;-70
2023/03/06 07:16:22;;;;;;;13.40;10.00;;;;;;;18.01;48.20;98870.59;5092152;28;20032;-73
2023/03/06 07:18:47;;;;;;;16.20;9.68;;;;;;;18.01;48.06;98865.31;5092101;28;20031;-73
2023/03/06 07:21:13;;;;;;;14.20;9.70;;;;;;;18.02;48.20;98872.28;5089094;28;20039;-72
2023/03/06 07:23:39;;;;;;;12.52;9.23;;;;;;;18.02;47.75;98872.28;5092280;28;20028;-72
2023/03/06 07:26:04;;;;;;;15.48;10.20;;;;;;;17.99;48.14;98881.22;5082223;28;20051;-71
2023/03/06 07:28:30;;;;;;;14.48;10.32;;;;;;;18.00;47.94;98879.47;5086737;28;20031;-70
2023/03/06 07:30:55;;;;;;;15.18;10.18;;;;;;;17.98;48.18;98884.81;5090440;28;20028;-71
2023/03/06 07:33:21;;;;;;;13.45;9.82;;;;;;;17.97;48.36;98891.88;5088507;28;20020;-71
2023/03/06 07:35:46;;;;;;;15.90;9.85;;;;;;;17.95;48.01;98898.19;5092481;28;20024;-69
2023/03/06 07:38:13;;;;;;;13.48;9.50;;;;;;;17.95;48.20;98896.41;5091160;28;20476;-70
2023/03/06 07:40:38;;;;;;;12.82;9.07;;;;;;;17.96;48.00;98894.59;5088563;28;20020;-70
2023/03/06 07:43:04;;;;;;;13.27;9.15;;;;;;;17.96;48.07;98894.59;5089534;28;20056;-72
2023/03/06 07:45:30;;;;;;;12.90;9.43;;;;;;;17.97;48.08;98907.72;5081341;28;20021;-72
2023/03/06 07:47:55;;;;;;;13.38;10.20;;;;;;;17.94;47.94;98902.63;5086848;28;20044;-72
2023/03/06 07:50:21;;;;;;;13.27;9.70;;;;;;;17.91;47.96;98902.78;5092152;28;20066;-72
2023/03/06 07:52:48;;;;;;;15.98;10.27;;;;;;;17.91;47.99;98907.22;5091466;28;20036;-72
2023/03/06 07:55:13;;;;;;;16.38;10.45;;;;;;;17.91;47.94;98902.78;5092482;28;20067;-72
2023/03/06 07:57:39;;;;;;;14.25;9.73;;;;;;;17.89;47.86;98902.03;5091605;28;20051;-71
2023/03/06 08:00:07;;;;;;;16.05;10.27;;;;;;;17.89;48.24;98903.81;5092358;28;20016;-72
2023/03/06 08:02:33;;;;;;;15.20;10.38;;;;;;;17.88;48.05;98908.25;5092163;28;20103;-71
2023/03/06 08:04:58;;;;;;;15.70;10.50;;;;;;;17.84;48.07;98906.72;5092361;28;20059;-72
2023/03/06 08:07:23;;;;;;;15.57;9.93;;;;;;;17.87;47.82;98913.63;5090620;28;20077;-71
2023/03/06 08:09:49;;;;;;;16.17;10.57;;;;;;;17.85;47.84;98911.06;5091784;28;20016;-73
2023/03/06 08:12:15;;;;;;;14.95;10.15;;;;;;;17.86;48.12;98912.75;5091688;28;20024;-72
2023/03/06 08:14:40;;;;;;;15.77;10.98;;;;;;;17.84;47.91;98917.28;5092302;28;20395;-72
2023/03/06 08:17:06;;;;;;;14.35;10.32;;;;;;;17.83;47.92;98926.13;5092148;28;20027;-72
2023/03/06 08:19:31;;;;;;;15.75;10.75;;;;;;;17.84;47.72;98917.28;5092147;28;20486;-71
2023/03/06 08:21:57;;;;;;;15.60;11.13;;;;;;;17.82;47.62;98921.81;5092254;28;20032;-72
2023/03/06 08:24:23;;;;;;;14.73;10.73;;;;;;;17.81;47.67;98928.00;5092514;28;20031;-72
2023/03/06 08:26:48;;;;;;;15.82;11.85;;;;;;;17.78;47.53;98922.91;5091938;28;20032;-72
2023/03/06 08:29:14;;;;;;;14.40;10.23;;;;;;;17.77;47.50;98931.75;5092199;28;20020;-73
2023/03/06 08:31:44;;;;;;;14.10;10.10;;;;;;;17.76;47.61;98930.03;5092263;28;20016;-72
2023/03/06 08:34:13;;;;;;;14.73;9.98;;;;;;;17.74;47.38;98937.19;5091881;28;20032;-72
2023/03/06 08:36:39;;;;;;;16.27;11.35;;;;;;;17.73;47.25;98938.13;5091793;28;20407;-72
2023/03/06 08:39:05;;;;;;;14.95;10.63;;;;;;;17.70;47.31;98936.50;5091510;28;20028;-72
2023/03/06 08:41:31;;;;;;;15.57;10.73;;;;;;;17.71;47.29;98939.06;5095209;28;20031;-72
2023/03/06 08:43:57;;;;;;;15.02;11.02;;;;;;;17.71;47.02;98944.34;5095953;28;20051;-73
2023/03/06 08:46:24;;;;;;;14.45;10.75;;;;;;;17.69;47.45;98938.28;5093925;28;20476;-73
2023/03/06 08:48:50;;;;;;;17.48;11.60;;;;;;;17.67;47.18;98936.69;5094524;28;20067;-72
2023/03/06 08:51:16;;;;;;;15.32;11.73;;;;;;;17.65;47.33;98947.34;5097024;28;20052;-72
2023/03/06 08:53:42;;;;;;;15.98;11.00;;;;;;;17.64;47.16;98948.28;5095755;28;20032;-72
2023/03/06 08:56:14;;;;;;;17.55;11.18;;;;;;;17.61;47.13;98948.44;5095033;28;20038;-72
2023/03/06 08:58:39;;;;;;;16.05;10.95;;;;;;;17.63;47.31;98954.47;5095274;28;20028;-72
2023/03/06 09:01:10;;;;;;;13.90;10.20;;;;;;;17.62;47.27;98949.28;5095002;28;20073;-72
2023/03/06 09:03:36;;;;;;;15.50;10.13;;;;;;;17.63;47.25;98956.25;5093191;28;20123;-72
2023/03/06 09:06:01;;;;;;;14.82;10.43;;;;;;;17.60;47.39;98952.00;5095356;28;20107;-72
2023/03/06 09:08:27;;;;;;;14.63;11.27;;;;;;;17.60;47.49;98949.38;5095104;28;20055;-72
2023/03/06 09:10:52;;;;;;;14.27;10.95;;;;;;;17.58;47.17;98954.72;5094752;28;20118;-70
2023/03/06 09:13:17;;;;;;;17.98;11.68;;;;;;;17.59;47.30;98955.59;5093438;28;20114;-70
2023/03/06 09:15:43;;;;;;;14.82;10.30;;;;;;;17.57;47.18;98957.44;5094589;28;20031;-70
2023/03/06 09:18:08;;;;;;;14.68;10.75;;;;;;;17.54;47.14;98952.34;5095009;28;20112;-71
2023/03/06 09:20:34;;;;;;;14.40;10.35;;;;;;;17.55;47.40;98954.03;5094560;28;20032;-71
2023/03/06 09:22:59;;;;;;;16.23;11.40;;;;;;;17.54;47.04;98952.34;5093904;28;20047;-70
2023/03/06 09:25:24;;;;;;;16.38;10.38;;;;;;;17.53;47.01;98955.91;5094385;28;20035;-71
2023/03/06 09:27:50;;;;;;;15.65;10.35;;;;;;;17.53;47.32;98961.19;5095241;28;20024;-70
2023/03/06 09:30:17;;;;;;;16.50;11.27;;;;;;;17.52;47.27;98964.75;5094847;28;20085;-70
2023/03/06 09:32:42;;;;;;;16.70;11.05;;;;;;;17.51;47.18;98957.78;5095065;28;20039;-70
2023/03/06 09:35:09;;;;;;;14.50;10.90;;;;;;;17.50;47.10;98961.34;5094915;28;20028;-70
2023/03/06 09:37:35;;;;;;;15.48;11.05;;;;;;;17.51;47.08;98960.41;5094654;28;20031;-71
2023/03/06 09:40:01;;;;;;;16.55;10.55;;;;;;;17.51;47.50;98965.69;5094707;28;20028;-70
2023/03/06 09:42:27;;;;;;;15.15;11.13;;;;;;;17.46;46.95;98955.41;5094858;28;20420;-71
2023/03/06 09:44:59;;;;;;;14.00;10.57;;;;;;;17.48;47.06;98958.78;5094695;28;20020;-70
2023/03/06 09:47:39;;;;;;;14.25;10.90;;;;;;;17.48;47.25;98947.41;5094997;28;20028;-69
2023/03/06 09:50:20;;;;;;;15.23;10.45;;;;;;;17.48;47.05;98944.78;5094352;28;20530;-70
2023/03/06 09:52:54;;;;;;;15.55;10.48;;;;;;;17.47;47.31;98950.97;5072937;28;20549;-70
2023/03/06 09:55:27;;;;;;;15.85;10.40;;;;;;;17.48;47.16;98957.97;5074183;28;20480;-71
2023/03/06 09:58:09;;;;;;;14.60;10.10;;;;;;;17.47;47.30;98956.25;5074347;28;20016;-70
2023/03/06 10:00:50;;;;;;;14.15;10.75;;;;;;;17.44;47.52;98962.56;5076946;28;20033;-71
2023/03/06 10:03:34;;;;;;;16.10;11.38;;;;;;;17.47;47.25;98966.81;5094380;28;20024;-70
2023/03/06 10:06:22;;;;;;;14.32;10.20;;;;;;;17.44;47.14;98973.94;5094056;28;20476;-71
2023/03/06 10:08:54;;;;;;;12.88;9.93;;;;;;;17.45;46.95;98975.63;5092970;28;20036;-70
2023/03/06 10:11:35;;;;;;;14.60;10.50;;;;;;;17.47;47.11;98977.38;5094121;28;20357;-71
2023/03/06 10:14:30;;;;;;;12.32;9.43;;;;;;;17.44;47.28;98984.47;5093889;28;20058;-71
2023/03/06 10:16:57;;;;;;;15.15;9.98;;;;;;;17.47;47.14;98982.63;5094336;28;20053;-68
2023/03/06 10:19:34;;;;;;;16.13;10.63;;;;;;;17.43;47.11;98972.22;5094205;28;20024;-71
2023/03/06 10:22:18;;;;;;;13.55;10.27;;;;;;;17.42;47.34;98986.38;5092492;28;20023;-71
2023/03/06 10:25:18;;;;;;;15.23;10.77;;;;;;;17.44;47.10;98979.22;5094179;28;20092;-70
2023/03/06 10:27:49;;;;;;;14.23;10.05;;;;;;;17.43;46.93;98977.50;5092936;28;20361;-70
2023/03/06 10:30:43;;;;;;;13.77;9.90;;;;;;;17.43;47.25;98966.97;5093834;28;20074;-70
2023/03/06 10:33:40;;;;;;;14.63;10.82;;;;;;;17.45;47.24;98966.88;5074504;28;20028;-70
2023/03/06 10:36:05;;;;;;;13.23;9.53;;;;;;;17.43;47.15;98961.69;5074102;28;20032;-69
2023/03/06 10:38:30;;;;;;;13.27;9.93;;;;;;;17.44;47.24;98952.84;5072384;28;20039;-70
2023/03/06 10:41:11;;;;;;;12.98;9.52;;;;;;;17.44;47.03;98952.84;5077539;28;20023;-69
2023/03/06 10:43:43;;;;;;;13.75;9.43;;;;;;;17.44;46.92;98958.09;5094065;28;20059;-70
2023/03/06 10:46:24;;;;;;;13.18;10.00;;;;;;;17.43;47.17;98959.03;5093634;28;20034;-70
2023/03/06 10:48:57;;;;;;;14.00;9.93;;;;;;;17.45;46.98;98953.69;5093622;28;20089;-69
2023/03/06 10:51:24;;;;;;;12.48;9.45;;;;;;;17.44;47.19;98952.84;5093118;28;20044;-70
2023/03/06 10:53:57;;;;;;;15.30;10.23;;;;;;;17.43;46.70;98956.41;5093416;28;20426;-70
2023/03/06 10:56:26;;;;;;;14.63;9.40;;;;;;;17.46;47.12;98952.75;5093425;28;20028;-70
2023/03/06 10:59:13;;;;;;;12.95;9.02;;;;;;;17.48;46.96;98952.69;5093406;28;20063;-70
2023/03/06 11:01:54;;;;;;;12.52;9.00;;;;;;;17.48;46.91;98952.69;5093162;28;20032;-70
2023/03/06 11:04:22;;;;;;;13.43;9.85;;;;;;;17.48;47.11;98952.69;5092928;28;20016;-70
2023/03/06 11:07:16;;;;;;;12.80;9.43;;;;;;;17.48;47.01;98957.97;5093327;28;20174;-70
2023/03/06 11:09:57;;;;;;;13.43;9.32;;;;;;;17.48;46.90;98947.41;5093257;28;20028;-70
2023/03/06 11:12:40;;;;;;;11.98;8.98;;;;;;;17.47;46.96;98950.97;5092996;28;20031;-70
2023/03/06 11:15:07;;;;;;;11.43;8.85;;;;;;;17.47;47.05;98946.53;5092993;28;20024;-70
2023/03/06 11:17:47;;;;;;;12.00;9.20;;;;;;;17.48;46.69;98939.50;5093059;28;20387;-70
2023/03/06 11:20:44;;;;;;;12.05;8.30;;;;;;;17.49;47.02;98936.78;5092477;28;20058;-69
2023/03/06 11:23:15;;;;;;;13.45;9.05;;;;;;;17.49;46.70;98943.81;5056480;28;20044;-70